sensor_id;sensor_type;location;lat;lon;timestamp;P1;durP1;ratioP1;P2;durP2;ratioP2
36371;SDS011;22398;51.346;12.372;2023-05-10T00:03:24;5.65;;;3.40;;
36371;SDS011;22398;51.346;12.372;2023-05-10T00:08:29;8.48;;;3.70;;
36371;SDS011;22398;51.346;12.372;2023-05-10T00:13:33;7.80;;;3.95;;
36371;SDS011;22398;51.346;12.372;2023-05-10T00:18:36;6.57;;;3.58;;
36371;SDS011;22398;51.346;12.372;2023-05-10T00:23:41;6.78;;;3.47;;
36371;SDS011;22398;51.346;12.372;2023-05-10T00:28:45;10.18;;;3.33;;
36371;SDS011;22398;51.346;12.372;2023-05-10T00:33:49;7.82;;;3.65;;
36371;SDS011;22398;51.346;12.372;2023-05-10T00:38:54;9.85;;;4.10;;
36371;SDS011;22398;51.346;12.372;2023-05-10T00:43:57;7.37;;;3.63;;
36371;SDS011;22398;51.346;12.372;2023-05-10T00:49:03;8.77;;;3.63;;
36371;SDS011;22398;51.346;12.372;2023-05-10T00:54:08;10.93;;;3.80;;
36371;SDS011;22398;51.346;12.372;2023-05-10T00:59:14;7.72;;;3.38;;
36371;SDS011;22398;51.346;12.372;2023-05-10T01:04:19;7.78;;;3.90;;
36371;SDS011;22398;51.346;12.372;2023-05-10T01:09:28;5.70;;;3.20;;
36371;SDS011;22398;51.346;12.372;2023-05-10T01:14:32;9.15;;;3.90;;
36371;SDS011;22398;51.346;12.372;2023-05-10T01:19:37;5.47;;;3.33;;
36371;SDS011;22398;51.346;12.372;2023-05-10T01:24:51;7.28;;;3.50;;
36371;SDS011;22398;51.346;12.372;2023-05-10T01:36:01;8.15;;;4.15;;
36371;SDS011;22398;51.346;12.372;2023-05-10T01:41:12;8.63;;;4.03;;
36371;SDS011;22398;51.346;12.372;2023-05-10T01:46:20;10.90;;;3.60;;
36371;SDS011;22398;51.346;12.372;2023-05-10T01:51:38;4.45;;;2.70;;
36371;SDS011;22398;51.346;12.372;2023-05-10T01:56:44;7.03;;;2.88;;
36371;SDS011;22398;51.346;12.372;2023-05-10T02:01:50;7.13;;;4.00;;
36371;SDS011;22398;51.346;12.372;2023-05-10T02:06:57;6.90;;;3.45;;
36371;SDS011;22398;51.346;12.372;2023-05-10T02:12:01;7.22;;;3.05;;
36371;SDS011;22398;51.346;12.372;2023-05-10T02:17:06;7.63;;;3.63;;
36371;SDS011;22398;51.346;12.372;2023-05-10T02:22:12;5.90;;;3.47;;
36371;SDS011;22398;51.346;12.372;2023-05-10T02:27:18;6.43;;;3.78;;
36371;SDS011;22398;51.346;12.372;2023-05-10T02:32:24;6.57;;;3.47;;
36371;SDS011;22398;51.346;12.372;2023-05-10T02:37:32;4.93;;;3.13;;
36371;SDS011;22398;51.346;12.372;2023-05-10T02:42:37;5.75;;;3.03;;
36371;SDS011;22398;51.346;12.372;2023-05-10T02:47:44;7.90;;;3.85;;
36371;SDS011;22398;51.346;12.372;2023-05-10T02:52:49;7.15;;;3.60;;
36371;SDS011;22398;51.346;12.372;2023-05-10T02:57:56;7.22;;;3.83;;
36371;SDS011;22398;51.346;12.372;2023-05-10T03:03:01;6.43;;;3.60;;
36371;SDS011;22398;51.346;12.372;2023-05-10T03:08:07;5.72;;;3.13;;
36371;SDS011;22398;51.346;12.372;2023-05-10T03:18:21;6.18;;;3.45;;
36371;SDS011;22398;51.346;12.372;2023-05-10T03:23:30;8.70;;;4.72;;
36371;SDS011;22398;51.346;12.372;2023-05-10T03:28:38;5.97;;;3.70;;
36371;SDS011;22398;51.346;12.372;2023-05-10T03:33:46;6.03;;;3.37;;
36371;SDS011;22398;51.346;12.372;2023-05-10T03:38:57;6.95;;;3.78;;
36371;SDS011;22398;51.346;12.372;2023-05-10T03:44:01;8.48;;;3.28;;
36371;SDS011;22398;51.346;12.372;2023-05-10T03:49:04;5.70;;;3.67;;
36371;SDS011;22398;51.346;12.372;2023-05-10T03:54:09;9.15;;;3.70;;
36371;SDS011;22398;51.346;12.372;2023-05-10T03:59:13;7.50;;;3.25;;
36371;SDS011;22398;51.346;12.372;2023-05-10T04:04:17;9.70;;;3.55;;
36371;SDS011;22398;51.346;12.372;2023-05-10T04:09:25;9.65;;;4.00;;
36371;SDS011;22398;51.346;12.372;2023-05-10T04:14:28;6.63;;;3.53;;
36371;SDS011;22398;51.346;12.372;2023-05-10T04:19:32;7.65;;;4.18;;
36371;SDS011;22398;51.346;12.372;2023-05-10T04:24:37;7.10;;;3.05;;
36371;SDS011;22398;51.346;12.372;2023-05-10T04:29:41;4.65;;;2.55;;
36371;SDS011;22398;51.346;12.372;2023-05-10T04:34:45;8.77;;;3.40;;
36371;SDS011;22398;51.346;12.372;2023-05-10T04:39:50;6.90;;;3.33;;
36371;SDS011;22398;51.346;12.372;2023-05-10T04:44:54;10.27;;;3.85;;
36371;SDS011;22398;51.346;12.372;2023-05-10T04:49:57;10.80;;;3.63;;
36371;SDS011;22398;51.346;12.372;2023-05-10T04:55:02;7.57;;;3.47;;
36371;SDS011;22398;51.346;12.372;2023-05-10T05:00:09;6.32;;;3.60;;
36371;SDS011;22398;51.346;12.372;2023-05-10T05:05:14;4.82;;;3.17;;
36371;SDS011;22398;51.346;12.372;2023-05-10T05:10:19;8.95;;;3.30;;
36371;SDS011;22398;51.346;12.372;2023-05-10T05:15:22;6.47;;;3.22;;
36371;SDS011;22398;51.346;12.372;2023-05-10T05:20:26;5.65;;;3.47;;
36371;SDS011;22398;51.346;12.372;2023-05-10T05:25:31;5.60;;;3.20;;
36371;SDS011;22398;51.346;12.372;2023-05-10T05:30:34;7.57;;;3.78;;
36371;SDS011;22398;51.346;12.372;2023-05-10T05:35:38;6.05;;;3.42;;
36371;SDS011;22398;51.346;12.372;2023-05-10T05:40:43;6.43;;;2.88;;
36371;SDS011;22398;51.346;12.372;2023-05-10T05:45:47;6.40;;;3.05;;
36371;SDS011;22398;51.346;12.372;2023-05-10T05:50:53;4.10;;;2.70;;
36371;SDS011;22398;51.346;12.372;2023-05-10T05:55:59;7.70;;;3.20;;
36371;SDS011;22398;51.346;12.372;2023-05-10T06:01:03;8.57;;;3.55;;
36371;SDS011;22398;51.346;12.372;2023-05-10T06:06:06;5.65;;;3.10;;
36371;SDS011;22398;51.346;12.372;2023-05-10T06:11:11;5.18;;;2.50;;
36371;SDS011;22398;51.346;12.372;2023-05-10T06:16:15;12.63;;;3.60;;
36371;SDS011;22398;51.346;12.372;2023-05-10T06:21:19;14.82;;;4.57;;
36371;SDS011;22398;51.346;12.372;2023-05-10T06:26:24;6.22;;;2.92;;
36371;SDS011;22398;51.346;12.372;2023-05-10T06:31:27;4.03;;;2.70;;
36371;SDS011;22398;51.346;12.372;2023-05-10T06:36:31;4.38;;;2.70;;
36371;SDS011;22398;51.346;12.372;2023-05-10T06:41:36;7.97;;;3.10;;
36371;SDS011;22398;51.346;12.372;2023-05-10T06:46:40;7.07;;;2.90;;
36371;SDS011;22398;51.346;12.372;2023-05-10T06:51:44;4.57;;;2.92;;
36371;SDS011;22398;51.346;12.372;2023-05-10T06:56:49;6.38;;;3.20;;
36371;SDS011;22398;51.346;12.372;2023-05-10T07:01:53;7.55;;;3.33;;
36371;SDS011;22398;51.346;12.372;2023-05-10T07:06:56;9.48;;;2.60;;
36371;SDS011;22398;51.346;12.372;2023-05-10T07:12:02;5.95;;;3.03;;
36371;SDS011;22398;51.346;12.372;2023-05-10T07:17:05;7.75;;;3.15;;
36371;SDS011;22398;51.346;12.372;2023-05-10T07:22:09;6.07;;;2.97;;
36371;SDS011;22398;51.346;12.372;2023-05-10T07:27:14;5.13;;;3.22;;
36371;SDS011;22398;51.346;12.372;2023-05-10T07:32:18;5.97;;;3.45;;
36371;SDS011;22398;51.346;12.372;2023-05-10T07:37:21;6.40;;;2.80;;
36371;SDS011;22398;51.346;12.372;2023-05-10T07:42:26;4.93;;;2.88;;
36371;SDS011;22398;51.346;12.372;2023-05-10T07:52:33;7.00;;;2.88;;
36371;SDS011;22398;51.346;12.372;2023-05-10T07:57:38;5.55;;;3.20;;
36371;SDS011;22398;51.346;12.372;2023-05-10T08:07:45;5.25;;;2.95;;
36371;SDS011;22398;51.346;12.372;2023-05-10T08:12:50;5.05;;;3.38;;
36371;SDS011;22398;51.346;12.372;2023-05-10T08:22:58;6.30;;;3.10;;
36371;SDS011;22398;51.346;12.372;2023-05-10T08:28:03;7.18;;;3.00;;
36371;SDS011;22398;51.346;12.372;2023-05-10T08:33:06;9.00;;;3.22;;
36371;SDS011;22398;51.346;12.372;2023-05-10T08:38:10;7.60;;;2.83;;
36371;SDS011;22398;51.346;12.372;2023-05-10T08:43:16;6.28;;;3.00;;
36371;SDS011;22398;51.346;12.372;2023-05-10T08:58:31;5.10;;;3.47;;
36371;SDS011;22398;51.346;12.372;2023-05-10T09:03:35;11.98;;;3.55;;
36371;SDS011;22398;51.346;12.372;2023-05-10T09:08:41;8.75;;;3.35;;
36371;SDS011;22398;51.346;12.372;2023-05-10T09:13:47;9.73;;;3.47;;
36371;SDS011;22398;51.346;12.372;2023-05-10T09:18:53;5.43;;;3.67;;
36371;SDS011;22398;51.346;12.372;2023-05-10T09:23:57;4.03;;;3.13;;
36371;SDS011;22398;51.346;12.372;2023-05-10T09:29:07;7.03;;;3.90;;
36371;SDS011;22398;51.346;12.372;2023-05-10T09:34:11;6.32;;;4.13;;
36371;SDS011;22398;51.346;12.372;2023-05-10T09:39:19;14.50;;;4.30;;
36371;SDS011;22398;51.346;12.372;2023-05-10T09:44:24;8.45;;;4.68;;
36371;SDS011;22398;51.346;12.372;2023-05-10T09:49:29;7.28;;;4.70;;
36371;SDS011;22398;51.346;12.372;2023-05-10T09:54:35;17.40;;;4.50;;
36371;SDS011;22398;51.346;12.372;2023-05-10T09:59:42;8.18;;;4.05;;
36371;SDS011;22398;51.346;12.372;2023-05-10T10:04:46;10.70;;;4.75;;
36371;SDS011;22398;51.346;12.372;2023-05-10T10:09:53;7.53;;;5.18;;
36371;SDS011;22398;51.346;12.372;2023-05-10T10:14:58;8.18;;;5.10;;
36371;SDS011;22398;51.346;12.372;2023-05-10T10:20:03;7.32;;;4.97;;
36371;SDS011;22398;51.346;12.372;2023-05-10T10:25:10;10.98;;;5.05;;
36371;SDS011;22398;51.346;12.372;2023-05-10T10:30:21;9.73;;;4.65;;
36371;SDS011;22398;51.346;12.372;2023-05-10T10:35:31;8.57;;;4.57;;
36371;SDS011;22398;51.346;12.372;2023-05-10T10:40:35;6.97;;;4.63;;
36371;SDS011;22398;51.346;12.372;2023-05-10T10:45:41;12.48;;;5.75;;
36371;SDS011;22398;51.346;12.372;2023-05-10T10:50:45;7.40;;;4.70;;
36371;SDS011;22398;51.346;12.372;2023-05-10T10:55:48;8.90;;;5.15;;
36371;SDS011;22398;51.346;12.372;2023-05-10T11:00:53;5.70;;;4.40;;
36371;SDS011;22398;51.346;12.372;2023-05-10T11:06:16;7.93;;;5.07;;
36371;SDS011;22398;51.346;12.372;2023-05-10T11:11:34;8.10;;;5.55;;
36371;SDS011;22398;51.346;12.372;2023-05-10T11:16:43;11.50;;;5.30;;
36371;SDS011;22398;51.346;12.372;2023-05-10T11:21:48;14.02;;;5.80;;
36371;SDS011;22398;51.346;12.372;2023-05-10T11:26:52;9.95;;;6.20;;
36371;SDS011;22398;51.346;12.372;2023-05-10T11:31:59;8.40;;;5.28;;
36371;SDS011;22398;51.346;12.372;2023-05-10T11:37:02;9.63;;;5.72;;
36371;SDS011;22398;51.346;12.372;2023-05-10T11:42:06;9.05;;;6.35;;
36371;SDS011;22398;51.346;12.372;2023-05-10T11:47:12;10.68;;;6.38;;
36371;SDS011;22398;51.346;12.372;2023-05-10T11:52:16;9.75;;;5.60;;
36371;SDS011;22398;51.346;12.372;2023-05-10T11:57:26;10.10;;;6.30;;
36371;SDS011;22398;51.346;12.372;2023-05-10T12:02:31;8.68;;;6.10;;
36371;SDS011;22398;51.346;12.372;2023-05-10T12:12:38;8.90;;;5.93;;
36371;SDS011;22398;51.346;12.372;2023-05-10T12:17:45;10.07;;;6.00;;
36371;SDS011;22398;51.346;12.372;2023-05-10T12:22:50;12.20;;;6.70;;
36371;SDS011;22398;51.346;12.372;2023-05-10T12:27:54;9.40;;;6.05;;
36371;SDS011;22398;51.346;12.372;2023-05-10T12:33:00;11.15;;;6.03;;
36371;SDS011;22398;51.346;12.372;2023-05-10T12:43:31;7.88;;;5.55;;
36371;SDS011;22398;51.346;12.372;2023-05-10T12:48:37;10.30;;;6.03;;
36371;SDS011;22398;51.346;12.372;2023-05-10T12:53:42;7.50;;;5.20;;
36371;SDS011;22398;51.346;12.372;2023-05-10T12:58:49;6.05;;;4.68;;
36371;SDS011;22398;51.346;12.372;2023-05-10T13:03:55;7.50;;;4.97;;
36371;SDS011;22398;51.346;12.372;2023-05-10T13:14:02;7.10;;;4.78;;
36371;SDS011;22398;51.346;12.372;2023-05-10T13:19:07;6.70;;;4.75;;
36371;SDS011;22398;51.346;12.372;2023-05-10T13:24:11;6.43;;;3.88;;
36371;SDS011;22398;51.346;12.372;2023-05-10T13:29:16;6.13;;;4.43;;
36371;SDS011;22398;51.346;12.372;2023-05-10T13:34:21;5.28;;;4.03;;
36371;SDS011;22398;51.346;12.372;2023-05-10T13:44:28;6.65;;;3.90;;
36371;SDS011;22398;51.346;12.372;2023-05-10T13:49:33;5.75;;;3.83;;
36371;SDS011;22398;51.346;12.372;2023-05-10T13:54:37;5.38;;;3.88;;
36371;SDS011;22398;51.346;12.372;2023-05-10T13:59:40;6.78;;;3.80;;
36371;SDS011;22398;51.346;12.372;2023-05-10T14:04:45;5.03;;;3.72;;
36371;SDS011;22398;51.346;12.372;2023-05-10T14:09:49;7.00;;;4.00;;
36371;SDS011;22398;51.346;12.372;2023-05-10T14:14:53;5.95;;;4.07;;
36371;SDS011;22398;51.346;12.372;2023-05-10T14:19:57;5.97;;;3.72;;
36371;SDS011;22398;51.346;12.372;2023-05-10T14:25:01;7.32;;;4.55;;
36371;SDS011;22398;51.346;12.372;2023-05-10T14:30:05;6.72;;;4.10;;
36371;SDS011;22398;51.346;12.372;2023-05-10T14:35:11;7.80;;;3.40;;
36371;SDS011;22398;51.346;12.372;2023-05-10T14:40:18;5.88;;;3.22;;
36371;SDS011;22398;51.346;12.372;2023-05-10T14:45:22;5.18;;;2.65;;
36371;SDS011;22398;51.346;12.372;2023-05-10T14:50:27;4.95;;;2.88;;
36371;SDS011;22398;51.346;12.372;2023-05-10T14:55:34;5.63;;;3.65;;
36371;SDS011;22398;51.346;12.372;2023-05-10T15:00:37;8.13;;;4.47;;
36371;SDS011;22398;51.346;12.372;2023-05-10T15:05:43;6.53;;;3.67;;
36371;SDS011;22398;51.346;12.372;2023-05-10T15:10:47;3.00;;;2.00;;
36371;SDS011;22398;51.346;12.372;2023-05-10T15:15:51;4.97;;;1.70;;
36371;SDS011;22398;51.346;12.372;2023-05-10T15:20:55;3.90;;;1.67;;
36371;SDS011;22398;51.346;12.372;2023-05-10T15:25:59;8.45;;;1.13;;
36371;SDS011;22398;51.346;12.372;2023-05-10T15:31:04;3.80;;;1.27;;
36371;SDS011;22398;51.346;12.372;2023-05-10T15:36:09;3.40;;;1.20;;
36371;SDS011;22398;51.346;12.372;2023-05-10T15:41:13;2.15;;;0.93;;
36371;SDS011;22398;51.346;12.372;2023-05-10T15:46:17;4.55;;;1.70;;
36371;SDS011;22398;51.346;12.372;2023-05-10T15:51:22;6.75;;;2.30;;
36371;SDS011;22398;51.346;12.372;2023-05-10T15:56:25;2.25;;;1.58;;
36371;SDS011;22398;51.346;12.372;2023-05-10T16:01:29;3.03;;;1.75;;
36371;SDS011;22398;51.346;12.372;2023-05-10T16:06:35;2.70;;;2.03;;
36371;SDS011;22398;51.346;12.372;2023-05-10T16:11:39;3.00;;;1.60;;
36371;SDS011;22398;51.346;12.372;2023-05-10T16:21:50;3.28;;;1.73;;
36371;SDS011;22398;51.346;12.372;2023-05-10T16:26:54;2.38;;;1.58;;
36371;SDS011;22398;51.346;12.372;2023-05-10T16:31:58;5.70;;;3.25;;
36371;SDS011;22398;51.346;12.372;2023-05-10T16:37:03;6.70;;;2.13;;
36371;SDS011;22398;51.346;12.372;2023-05-10T16:42:07;2.75;;;1.67;;
36371;SDS011;22398;51.346;12.372;2023-05-10T16:47:11;6.07;;;1.45;;
36371;SDS011;22398;51.346;12.372;2023-05-10T16:52:16;12.45;;;6.80;;
36371;SDS011;22398;51.346;12.372;2023-05-10T16:57:20;3.85;;;2.30;;
36371;SDS011;22398;51.346;12.372;2023-05-10T17:02:23;5.07;;;2.03;;
36371;SDS011;22398;51.346;12.372;2023-05-10T17:07:29;3.47;;;1.75;;
36371;SDS011;22398;51.346;12.372;2023-05-10T17:12:32;11.20;;;6.82;;
36371;SDS011;22398;51.346;12.372;2023-05-10T17:17:36;5.90;;;3.28;;
36371;SDS011;22398;51.346;12.372;2023-05-10T17:22:41;3.25;;;1.83;;
36371;SDS011;22398;51.346;12.372;2023-05-10T17:27:45;4.93;;;3.28;;
36371;SDS011;22398;51.346;12.372;2023-05-10T17:32:49;8.48;;;4.88;;
36371;SDS011;22398;51.346;12.372;2023-05-10T17:37:53;7.95;;;5.07;;
36371;SDS011;22398;51.346;12.372;2023-05-10T17:42:57;3.75;;;2.70;;
36371;SDS011;22398;51.346;12.372;2023-05-10T17:48:01;10.68;;;5.18;;
36371;SDS011;22398;51.346;12.372;2023-05-10T17:53:09;7.88;;;3.13;;
36371;SDS011;22398;51.346;12.372;2023-05-10T17:58:13;5.00;;;2.53;;
36371;SDS011;22398;51.346;12.372;2023-05-10T18:03:16;3.85;;;2.72;;
36371;SDS011;22398;51.346;12.372;2023-05-10T18:08:21;5.53;;;3.28;;
36371;SDS011;22398;51.346;12.372;2023-05-10T18:13:27;3.83;;;2.63;;
36371;SDS011;22398;51.346;12.372;2023-05-10T18:18:30;4.72;;;2.80;;
36371;SDS011;22398;51.346;12.372;2023-05-10T18:23:36;4.82;;;3.33;;
36371;SDS011;22398;51.346;12.372;2023-05-10T18:28:39;5.30;;;3.50;;
36371;SDS011;22398;51.346;12.372;2023-05-10T18:33:43;4.00;;;2.22;;
36371;SDS011;22398;51.346;12.372;2023-05-10T18:38:48;4.35;;;3.22;;
36371;SDS011;22398;51.346;12.372;2023-05-10T18:43:51;8.30;;;5.80;;
36371;SDS011;22398;51.346;12.372;2023-05-10T18:48:55;7.25;;;4.82;;
36371;SDS011;22398;51.346;12.372;2023-05-10T18:53:59;4.20;;;2.55;;
36371;SDS011;22398;51.346;12.372;2023-05-10T18:59:03;4.73;;;3.33;;
36371;SDS011;22398;51.346;12.372;2023-05-10T19:04:06;6.18;;;4.35;;
36371;SDS011;22398;51.346;12.372;2023-05-10T19:09:11;7.28;;;4.18;;
36371;SDS011;22398;51.346;12.372;2023-05-10T19:14:15;3.72;;;2.72;;
36371;SDS011;22398;51.346;12.372;2023-05-10T19:19:18;7.35;;;3.42;;
36371;SDS011;22398;51.346;12.372;2023-05-10T19:24:23;7.75;;;5.70;;
36371;SDS011;22398;51.346;12.372;2023-05-10T19:29:28;13.38;;;8.82;;
36371;SDS011;22398;51.346;12.372;2023-05-10T19:34:31;6.53;;;4.05;;
36371;SDS011;22398;51.346;12.372;2023-05-10T19:39:36;6.80;;;3.75;;
36371;SDS011;22398;51.346;12.372;2023-05-10T19:44:40;7.38;;;4.60;;
36371;SDS011;22398;51.346;12.372;2023-05-10T19:49:44;10.98;;;5.82;;
36371;SDS011;22398;51.346;12.372;2023-05-10T19:54:49;5.88;;;4.65;;
36371;SDS011;22398;51.346;12.372;2023-05-10T19:59:53;8.93;;;3.97;;
36371;SDS011;22398;51.346;12.372;2023-05-10T20:04:57;8.20;;;4.53;;
36371;SDS011;22398;51.346;12.372;2023-05-10T20:10:03;7.32;;;4.93;;
36371;SDS011;22398;51.346;12.372;2023-05-10T20:15:06;6.03;;;4.38;;
36371;SDS011;22398;51.346;12.372;2023-05-10T20:20:10;9.00;;;4.75;;
36371;SDS011;22398;51.346;12.372;2023-05-10T20:25:16;6.45;;;4.30;;
36371;SDS011;22398;51.346;12.372;2023-05-10T20:30:20;6.40;;;4.40;;
36371;SDS011;22398;51.346;12.372;2023-05-10T20:35:23;6.18;;;4.47;;
36371;SDS011;22398;51.346;12.372;2023-05-10T20:40:28;7.00;;;4.75;;
36371;SDS011;22398;51.346;12.372;2023-05-10T20:45:31;6.78;;;4.32;;
36371;SDS011;22398;51.346;12.372;2023-05-10T20:55:41;7.20;;;4.55;;
36371;SDS011;22398;51.346;12.372;2023-05-10T21:00:44;7.27;;;4.73;;
36371;SDS011;22398;51.346;12.372;2023-05-10T21:05:48;7.88;;;4.95;;
36371;SDS011;22398;51.346;12.372;2023-05-10T21:10:53;6.60;;;4.20;;
36371;SDS011;22398;51.346;12.372;2023-05-10T21:15:56;6.63;;;4.47;;
36371;SDS011;22398;51.346;12.372;2023-05-10T21:20:59;9.15;;;4.40;;
36371;SDS011;22398;51.346;12.372;2023-05-10T21:26:04;6.78;;;4.43;;
36371;SDS011;22398;51.346;12.372;2023-05-10T21:31:07;9.87;;;4.77;;
36371;SDS011;22398;51.346;12.372;2023-05-10T21:36:11;8.63;;;4.80;;
36371;SDS011;22398;51.346;12.372;2023-05-10T21:41:15;7.80;;;5.32;;
36371;SDS011;22398;51.346;12.372;2023-05-10T21:46:19;9.02;;;5.15;;
36371;SDS011;22398;51.346;12.372;2023-05-10T21:51:23;10.13;;;5.28;;
36371;SDS011;22398;51.346;12.372;2023-05-10T21:56:28;8.95;;;5.28;;
36371;SDS011;22398;51.346;12.372;2023-05-10T22:01:32;7.97;;;5.13;;
36371;SDS011;22398;51.346;12.372;2023-05-10T22:06:35;8.95;;;6.05;;
36371;SDS011;22398;51.346;12.372;2023-05-10T22:11:40;8.25;;;5.55;;
36371;SDS011;22398;51.346;12.372;2023-05-10T22:16:43;8.00;;;5.43;;
36371;SDS011;22398;51.346;12.372;2023-05-10T22:21:47;8.15;;;5.53;;
36371;SDS011;22398;51.346;12.372;2023-05-10T22:26:53;7.47;;;5.38;;
36371;SDS011;22398;51.346;12.372;2023-05-10T22:31:57;9.57;;;5.93;;
36371;SDS011;22398;51.346;12.372;2023-05-10T22:37:05;13.15;;;6.30;;
36371;SDS011;22398;51.346;12.372;2023-05-10T22:42:10;8.60;;;5.65;;
36371;SDS011;22398;51.346;12.372;2023-05-10T22:47:14;14.82;;;5.45;;
36371;SDS011;22398;51.346;12.372;2023-05-10T22:52:18;9.05;;;5.55;;
36371;SDS011;22398;51.346;12.372;2023-05-10T22:57:23;7.80;;;6.00;;
36371;SDS011;22398;51.346;12.372;2023-05-10T23:07:30;9.45;;;5.50;;
36371;SDS011;22398;51.346;12.372;2023-05-10T23:12:36;11.10;;;5.93;;
36371;SDS011;22398;51.346;12.372;2023-05-10T23:17:39;10.07;;;6.13;;
36371;SDS011;22398;51.346;12.372;2023-05-10T23:22:43;11.85;;;6.00;;
36371;SDS011;22398;51.346;12.372;2023-05-10T23:27:48;11.48;;;5.97;;
36371;SDS011;22398;51.346;12.372;2023-05-10T23:32:52;12.38;;;6.30;;
36371;SDS011;22398;51.346;12.372;2023-05-10T23:37:55;9.80;;;6.03;;
36371;SDS011;22398;51.346;12.372;2023-05-10T23:43:00;10.38;;;6.43;;
36371;SDS011;22398;51.346;12.372;2023-05-10T23:48:04;12.20;;;6.22;;
36371;SDS011;22398;51.346;12.372;2023-05-10T23:53:07;9.85;;;6.43;;
36371;SDS011;22398;51.346;12.372;2023-05-10T23:58:12;12.52;;;6.20;;
